Time;durP1;ratioP1;P1;durP2;ratioP2;P2;SDS_P1;SDS_P2;PMS_P1;PMS_P2;Temp;Humidity;BMP_temperature;BMP_pressure;BME280_temperature;BME280_humidity;BME280_pressure;Samples;Min_cycle;Max_cycle;Signal;HPM_P1;HPM_P2
2023/12/17 00:00:30;;;;;;;10.43;8.52;;;;;;;29.75;50.82;101129.88;4959569;28;70009;-36
2023/12/17 00:02:59;;;;;;;9.90;8.65;;;;;;;29.76;50.94;101131.56;4973589;28;65180;-37
2023/12/17 00:05:51;;;;;;;9.10;8.50;;;;;;;29.78;51.97;101137.59;4971322;28;69897;-37
2023/12/17 00:08:22;;;;;;;9.52;8.60;;;;;;;29.87;51.10;101146.34;4933428;28;66611;-36
2023/12/17 00:10:52;;;;;;;9.48;8.57;;;;;;;29.90;51.60;101145.09;4949019;28;69861;-37
2023/12/17 00:13:24;;;;;;;10.35;9.32;;;;;;;29.90;52.73;101142.38;4965379;28;65798;-37
2023/12/17 00:15:54;;;;;;;13.88;8.98;;;;;;;29.97;53.36;101151.31;4946530;28;69977;-37
2023/12/17 00:18:25;;;;;;;10.68;9.68;;;;;;;30.01;54.36;101155.28;4969627;28;65297;-37
2023/12/17 00:20:55;;;;;;;12.18;9.30;;;;;;;30.09;54.51;101148.81;4954588;28;69676;-37
2023/12/17 00:23:26;;;;;;;15.07;10.00;;;;;;;30.05;58.35;101160.06;4966353;28;65676;-37
2023/12/17 00:25:56;;;;;;;12.10;10.88;;;;;;;30.08;56.35;101161.50;4967374;28;69951;-37
2023/12/17 00:28:27;;;;;;;13.98;10.63;;;;;;;30.15;57.46;101167.78;4941989;28;65922;-37
2023/12/17 00:30:57;;;;;;;13.43;11.23;;;;;;;30.16;59.07;101172.13;4948382;28;70030;-37
2023/12/17 00:33:27;;;;;;;13.40;10.85;;;;;;;30.24;57.49;101171.94;4956418;28;67027;-38
2023/12/17 00:35:57;;;;;;;29.17;14.13;;;;;;;30.24;59.05;101173.84;4959188;28;70157;-38
2023/12/17 00:38:27;;;;;;;22.75;14.90;;;;;;;30.17;58.92;101165.69;4969647;28;66066;-37
2023/12/17 00:40:57;;;;;;;34.50;16.75;;;;;;;29.93;60.34;101125.75;4947587;28;70358;-37
2023/12/17 00:43:27;;;;;;;32.03;17.20;;;;;;;30.33;59.73;101183.38;4971384;28;66658;-37
2023/12/17 00:45:57;;;;;;;29.38;17.95;;;;;;;30.33;61.01;101177.97;4954728;28;70133;-37
2023/12/17 00:48:27;;;;;;;39.00;18.90;;;;;;;30.37;60.10;101186.50;4950044;28;66139;-38
2023/12/17 00:50:57;;;;;;;37.45;18.83;;;;;;;30.41;60.25;101190.47;4951952;28;70866;-38
2023/12/17 00:53:27;;;;;;;38.88;19.67;;;;;;;30.34;61.47;101184.22;4968718;28;66006;-37
2023/12/17 00:55:57;;;;;;;41.90;20.85;;;;;;;30.37;61.66;101189.22;4959110;28;70646;-38
2023/12/17 00:58:27;;;;;;;35.45;19.95;;;;;;;30.07;64.07;101135.50;4948051;28;66826;-38
2023/12/17 01:00:57;;;;;;;33.20;19.40;;;;;;;30.31;61.21;101163.00;4965283;28;70453;-38
2023/12/17 01:03:27;;;;;;;40.03;21.48;;;;;;;30.46;61.61;101188.78;4973850;28;66224;-38
2023/12/17 01:05:58;;;;;;;43.72;20.65;;;;;;;30.48;61.84;101202.13;4971631;28;70552;-38
2023/12/17 01:08:28;;;;;;;29.65;20.25;;;;;;;30.36;65.36;101185.66;4950303;28;66154;-38
2023/12/17 01:10:58;;;;;;;36.13;19.90;;;;;;;30.27;69.45;101173.41;4968079;28;70721;-37
2023/12/17 01:13:28;;;;;;;28.85;18.98;;;;;;;30.40;65.89;101188.81;4967206;28;66833;-37
2023/12/17 01:15:59;;;;;;;31.95;18.65;;;;;;;30.49;64.34;101198.38;4962416;28;69610;-37
2023/12/17 01:18:29;;;;;;;26.20;17.13;;;;;;;30.54;61.73;101195.88;4950980;28;67111;-37
2023/12/17 01:21:03;;;;;;;26.52;17.35;;;;;;;30.52;61.40;101187.13;4969314;28;70827;-37
2023/12/17 01:23:35;;;;;;;27.25;17.48;;;;;;;30.67;61.09;101211.25;4967643;28;66979;-38
2023/12/17 01:26:05;;;;;;;27.10;16.08;;;;;;;30.59;60.35;101190.66;4943505;28;70001;-38
2023/12/17 01:28:35;;;;;;;26.50;16.48;;;;;;;30.68;60.65;101202.09;4962590;28;66381;-38
2023/12/17 01:31:07;;;;;;;27.73;17.17;;;;;;;30.76;60.84;101204.59;4945590;28;70391;-38
2023/12/17 01:33:37;;;;;;;28.10;17.80;;;;;;;30.78;60.77;101196.22;4958256;28;66534;-38
2023/12/17 01:36:07;;;;;;;33.35;18.20;;;;;;;30.76;60.54;101192.91;4961564;28;69797;-38
2023/12/17 01:38:38;;;;;;;28.42;17.30;;;;;;;30.69;60.74;101165.84;4944673;28;66329;-38
2023/12/17 01:41:08;;;;;;;28.65;17.80;;;;;;;30.72;60.46;101160.81;4967299;28;70635;-38
2023/12/17 01:43:38;;;;;;;31.50;19.65;;;;;;;30.86;60.66;101183.31;4966480;28;66711;-37
2023/12/17 01:46:08;;;;;;;24.40;16.80;;;;;;;30.88;60.91;101185.81;4952637;28;70522;-38
2023/12/17 01:48:44;;;;;;;26.85;17.58;;;;;;;30.64;60.63;101141.28;4965986;28;65889;-38
2023/12/17 01:51:16;;;;;;;22.13;16.57;;;;;;;30.81;60.60;101172.28;4967373;28;70534;-44
2023/12/17 01:53:47;;;;;;;26.98;17.08;;;;;;;30.94;60.54;101190.38;4965823;28;65083;-38
2023/12/17 01:56:17;;;;;;;26.80;18.13;;;;;;;30.97;60.95;101192.66;4963855;28;69507;-38
2023/12/17 01:58:48;;;;;;;21.92;17.35;;;;;;;30.99;60.52;101189.75;4950183;28;65474;-38
2023/12/17 02:01:18;;;;;;;29.17;17.52;;;;;;;30.99;60.81;101181.63;4971127;28;69733;-38
2023/12/17 02:03:49;;;;;;;29.83;18.90;;;;;;;31.02;60.42;101182.03;4968772;28;65240;-37
2023/12/17 02:06:19;;;;;;;27.52;18.73;;;;;;;31.01;60.49;101169.53;4944859;28;70035;-37
2023/12/17 02:08:49;;;;;;;31.20;19.83;;;;;;;31.03;60.39;101172.84;4961693;28;66537;-37
2023/12/17 02:11:20;;;;;;;25.73;18.52;;;;;;;31.02;60.57;101173.91;4945285;28;69232;-37
2023/12/17 02:13:49;;;;;;;24.63;19.58;;;;;;;31.07;60.71;101173.25;4972748;28;65908;-37
2023/12/17 02:16:20;;;;;;;28.92;18.77;;;;;;;31.07;60.66;101168.66;4961205;28;70624;-37
2023/12/17 02:18:49;;;;;;;23.83;17.90;;;;;;;31.03;60.86;101162.00;4969510;28;65623;-38
2023/12/17 02:21:21;;;;;;;25.80;18.15;;;;;;;31.09;60.51;101166.59;4962346;28;69946;-37
2023/12/17 02:23:52;;;;;;;25.25;19.00;;;;;;;31.09;61.02;101153.03;4964910;28;66510;-37
2023/12/17 02:26:22;;;;;;;20.70;17.40;;;;;;;31.12;61.03;101151.75;4946874;28;70138;-37
2023/12/17 02:28:52;;;;;;;28.23;16.70;;;;;;;30.82;61.11;101094.59;4947633;28;66129;-37
2023/12/17 02:31:22;;;;;;;25.38;17.83;;;;;;;30.75;65.08;101126.25;4962054;28;69695;-37
2023/12/17 02:33:52;;;;;;;29.77;15.38;;;;;;;30.95;64.62;101154.09;4975401;28;66352;-37
2023/12/17 02:36:22;;;;;;;26.30;16.13;;;;;;;30.91;65.09;101142.06;4947745;28;69206;-37
2023/12/17 02:38:53;;;;;;;29.80;15.73;;;;;;;30.88;66.59;101145.19;4967659;28;66608;-37
2023/12/17 02:41:23;;;;;;;18.13;14.05;;;;;;;30.84;67.74;101147.50;4966659;28;70535;-41
2023/12/17 02:43:53;;;;;;;19.25;12.98;;;;;;;30.86;66.98;101147.28;4967679;28;66474;-38
2023/12/17 02:46:22;;;;;;;17.98;13.05;;;;;;;30.68;65.49;101116.28;4967581;28;69265;-39
2023/12/17 02:48:53;;;;;;;19.67;12.82;;;;;;;30.88;67.69;101158.75;4950548;28;65754;-38
2023/12/17 02:51:23;;;;;;;13.45;11.57;;;;;;;30.83;66.20;101145.81;4966835;28;68798;-38
2023/12/17 02:53:53;;;;;;;15.32;11.25;;;;;;;30.87;67.83;101146.22;4962843;28;66578;-39
2023/12/17 02:56:23;;;;;;;16.08;11.50;;;;;;;30.93;64.78;101139.97;4956994;28;69170;-39
2023/12/17 02:58:53;;;;;;;12.82;11.55;;;;;;;30.96;66.06;101139.53;4975103;28;65823;-39
2023/12/17 03:01:23;;;;;;;18.05;9.93;;;;;;;30.95;65.48;101137.84;4967061;28;70384;-39
2023/12/17 03:03:53;;;;;;;10.82;9.82;;;;;;;30.87;67.21;101120.00;4934896;28;65718;-39
2023/12/17 03:06:24;;;;;;;16.95;8.77;;;;;;;30.98;64.74;101126.63;4944627;28;69543;-40
2023/12/17 03:08:54;;;;;;;20.13;8.90;;;;;;;30.97;67.81;101129.53;4948353;28;65585;-39
2023/12/17 03:11:25;;;;;;;12.85;8.55;;;;;;;31.01;65.84;101128.03;4965467;28;69589;-39
2023/12/17 03:13:55;;;;;;;9.20;8.27;;;;;;;31.04;65.04;101125.75;4968885;28;65929;-38
2023/12/17 03:16:26;;;;;;;8.27;7.55;;;;;;;31.02;67.67;101118.88;4946299;28;69201;-37
2023/12/17 03:18:57;;;;;;;8.15;7.40;;;;;;;31.01;65.74;101118.06;4952233;28;66682;-38
2023/12/17 03:21:27;;;;;;;10.93;8.07;;;;;;;31.05;67.71;101121.16;4970673;28;70244;-40
2023/12/17 03:23:59;;;;;;;15.50;9.02;;;;;;;31.07;66.14;101117.19;4932077;28;66133;-38
2023/12/17 03:26:29;;;;;;;9.68;8.52;;;;;;;30.93;67.42;101085.78;4966490;28;68972;-38
2023/12/17 03:28:59;;;;;;;17.00;8.45;;;;;;;31.15;66.16;101106.09;4945654;28;66055;-38
2023/12/17 03:31:29;;;;;;;14.10;9.63;;;;;;;31.11;67.10;101091.31;4965388;28;70487;-38
2023/12/17 03:34:01;;;;;;;14.35;9.38;;;;;;;31.20;67.94;101096.47;4977336;28;66345;-38
2023/12/17 03:36:30;;;;;;;;;;;;;;;30.98;69.78;101091.41;4964324;28;70344;-38
2023/12/17 03:39:02;;;;;;;15.90;8.73;;;;;;;31.11;68.54;101083.19;4962906;28;66174;-39
2023/12/17 03:41:33;;;;;;;13.77;8.63;;;;;;;31.08;69.10;101056.53;4957364;28;70167;-38
2023/12/17 03:44:03;;;;;;;15.30;8.10;;;;;;;31.26;67.28;101079.34;4960201;28;66610;-38
2023/12/17 03:46:34;;;;;;;11.63;7.72;;;;;;;31.33;65.48;101074.72;4949818;28;70055;-38
2023/12/17 03:49:04;;;;;;;11.85;7.07;;;;;;;31.37;64.47;101075.97;4960032;28;66249;-38
2023/12/17 03:51:34;;;;;;;12.02;7.72;;;;;;;31.40;63.84;101078.25;4959222;28;70291;-38
2023/12/17 03:54:04;;;;;;;10.75;6.55;;;;;;;31.49;61.26;101068.81;4962954;28;66639;-38
2023/12/17 03:56:34;;;;;;;9.27;4.20;;;;;;;31.53;57.93;101071.88;4972921;28;69648;-39
2023/12/17 03:59:04;;;;;;;6.53;4.30;;;;;;;31.61;58.33;101066.19;4966831;28;65499;-39
2023/12/17 04:01:43;;;;;;;7.85;4.60;;;;;;;31.66;59.51;101071.78;4961031;28;70142;-39
2023/12/17 04:04:13;;;;;;;5.97;5.05;;;;;;;31.63;59.14;101057.84;4961820;28;66986;-38
2023/12/17 04:06:46;;;;;;;5.18;4.78;;;;;;;31.84;59.54;101062.88;4963812;28;69387;-39
2023/12/17 04:09:16;;;;;;;5.22;4.82;;;;;;;31.90;59.96;101053.84;4967191;28;66287;-38
2023/12/17 04:11:46;;;;;;;4.63;4.22;;;;;;;31.94;59.92;101063.22;4955251;28;70375;-38
2023/12/17 04:14:17;;;;;;;4.03;3.72;;;;;;;31.95;59.75;101032.31;4963584;28;65823;-38
2023/12/17 04:16:47;;;;;;;4.07;3.78;;;;;;;32.04;60.37;101044.56;4975376;28;70523;-39
2023/12/17 04:19:18;;;;;;;3.90;3.60;;;;;;;32.09;60.44;101045.75;4983305;28;65880;-39
2023/12/17 04:21:49;;;;;;;3.83;3.60;;;;;;;32.11;60.07;101043.66;4957190;28;70252;-39
2023/12/17 04:24:19;;;;;;;4.43;3.70;;;;;;;32.16;60.41;101051.97;4956242;28;66592;-39
2023/12/17 04:26:50;;;;;;;5.53;3.75;;;;;;;32.15;60.31;101036.72;4984598;28;69981;-39
2023/12/17 04:29:20;;;;;;;3.95;3.63;;;;;;;32.21;60.13;101038.53;4967457;28;67175;-39
2023/12/17 04:31:51;;;;;;;4.97;3.72;;;;;;;32.22;60.24;101035.59;4954919;28;70348;-40
2023/12/17 04:34:21;;;;;;;9.35;4.82;;;;;;;32.07;60.19;101020.72;4973344;28;66091;-39
2023/12/17 04:36:52;;;;;;;8.25;5.20;;;;;;;32.00;60.31;101016.19;4962690;28;70502;-39
2023/12/17 04:39:23;;;;;;;7.95;7.25;;;;;;;32.05;59.55;101015.53;4984728;28;67102;-39
2023/12/17 04:41:53;;;;;;;9.07;6.25;;;;;;;31.95;59.90;101002.47;4984819;28;70074;-40
2023/12/17 04:44:23;;;;;;;15.45;7.47;;;;;;;32.05;59.05;101013.66;4991302;28;66124;-40
2023/12/17 04:46:53;;;;;;;10.60;6.55;;;;;;;32.17;59.00;101008.28;4980507;28;70651;-40
2023/12/17 04:49:23;;;;;;;13.40;6.82;;;;;;;32.11;58.54;100994.81;4992269;28;66601;-41
2023/12/17 04:51:54;;;;;;;7.13;6.50;;;;;;;32.12;59.54;101007.31;4975707;28;69769;-39
2023/12/17 04:54:25;;;;;;;7.40;6.40;;;;;;;32.25;59.17;100996.31;4979835;28;66367;-39
2023/12/17 04:56:55;;;;;;;5.95;5.45;;;;;;;32.28;59.09;100979.56;4982560;28;69415;-40
2023/12/17 04:59:25;;;;;;;8.52;5.07;;;;;;;32.21;59.30;100951.69;4974253;28;65671;-39
2023/12/17 05:01:55;;;;;;;5.03;4.60;;;;;;;32.42;59.17;100972.91;4985225;28;70501;-40
2023/12/17 05:04:25;;;;;;;6.45;5.55;;;;;;;32.45;59.32;100974.34;4986554;28;66533;-39
2023/12/17 05:06:55;;;;;;;9.88;4.68;;;;;;;32.48;59.21;100971.19;4977587;28;71346;-39
2023/12/17 05:09:25;;;;;;;6.18;5.25;;;;;;;32.44;58.97;100940.94;4987693;28;65976;-39
2023/12/17 05:11:56;;;;;;;6.20;5.25;;;;;;;32.17;59.37;100890.78;4985033;28;70910;-39
2023/12/17 05:14:26;;;;;;;6.07;4.40;;;;;;;32.57;59.60;100958.13;4966966;28;66094;-40
2023/12/17 05:16:56;;;;;;;4.28;3.85;;;;;;;32.60;59.70;100949.53;4943317;28;69710;-39
2023/12/17 05:19:27;;;;;;;3.92;3.63;;;;;;;32.49;59.89;100918.56;4959804;28;66294;-40
2023/12/17 05:21:57;;;;;;;3.08;2.75;;;;;;;32.64;59.84;100934.44;4962157;28;70066;-39
2023/12/17 05:24:28;;;;;;;5.45;3.60;;;;;;;32.66;60.06;100943.19;4968945;28;66133;-39
2023/12/17 05:26:58;;;;;;;3.33;3.10;;;;;;;32.68;60.30;100935.59;4955245;28;70290;-39
2023/12/17 05:29:28;;;;;;;3.55;3.08;;;;;;;32.64;59.84;100920.84;4950731;28;65394;-40
2023/12/17 05:31:58;;;;;;;7.55;3.40;;;;;;;32.73;60.35;100922.16;4945403;28;71063;-40
2023/12/17 05:34:28;;;;;;;3.78;3.38;;;;;;;32.76;60.14;100926.31;4941807;28;65254;-39
2023/12/17 05:36:58;;;;;;;7.18;3.17;;;;;;;32.72;60.03;100904.22;4971728;28;70136;-40
2023/12/17 05:39:28;;;;;;;4.07;3.30;;;;;;;32.71;60.97;100914.28;4966514;28;65868;-40
2023/12/17 05:41:58;;;;;;;3.88;3.40;;;;;;;32.52;61.97;100903.69;4973469;28;70046;-37
2023/12/17 05:44:28;;;;;;;4.28;3.97;;;;;;;32.42;63.84;100899.59;4940824;28;65350;-39
2023/12/17 05:46:58;;;;;;;4.20;3.80;;;;;;;32.39;63.98;100902.78;4978323;28;70415;-39
2023/12/17 05:49:28;;;;;;;3.78;3.47;;;;;;;32.15;64.69;100866.59;4979777;28;65502;-38
2023/12/17 05:51:59;;;;;;;5.93;4.50;;;;;;;32.12;64.73;100855.34;4967113;28;70283;-38
2023/12/17 05:54:29;;;;;;;7.90;4.55;;;;;;;32.34;64.01;100880.09;4968782;28;66609;-38
2023/12/17 05:57:00;;;;;;;8.15;4.53;;;;;;;32.08;63.73;100865.00;4974820;28;70302;-38
2023/12/17 05:59:30;;;;;;;8.98;4.30;;;;;;;32.08;62.58;100859.59;4974998;28;64877;-38
2023/12/17 06:02:00;;;;;;;3.45;3.25;;;;;;;31.86;61.73;100851.06;4944896;28;70635;-38
2023/12/17 06:04:30;;;;;;;10.35;3.47;;;;;;;31.87;61.25;100864.38;4950224;28;66200;-38
2023/12/17 06:07:00;;;;;;;8.65;3.85;;;;;;;31.76;60.05;100857.00;4943448;28;69153;-38
2023/12/17 06:09:30;;;;;;;5.55;3.78;;;;;;;31.68;59.50;100851.88;4968553;28;65946;-39
2023/12/17 06:12:00;;;;;;;8.27;3.58;;;;;;;31.61;59.05;100850.09;4950880;28;69681;-38
2023/12/17 06:14:30;;;;;;;3.97;2.95;;;;;;;31.39;57.95;100813.66;4966626;28;66494;-39
2023/12/17 06:17:00;;;;;;;5.90;3.78;;;;;;;31.53;59.01;100842.25;4952349;28;69335;-38
2023/12/17 06:19:30;;;;;;;7.82;3.72;;;;;;;31.41;57.80;100833.22;4943616;28;66647;-38
2023/12/17 06:22:02;;;;;;;5.78;3.20;;;;;;;31.48;58.36;100828.56;4929908;28;69834;-38
2023/12/17 06:24:33;;;;;;;3.83;3.40;;;;;;;31.39;57.31;100816.34;4962566;28;65531;-42
2023/12/17 06:27:03;;;;;;;11.57;3.30;;;;;;;31.35;56.69;100817.84;4970530;28;70119;-38
2023/12/17 06:29:33;;;;;;;4.72;3.40;;;;;;;31.01;55.54;100767.75;4963296;28;66275;-39
2023/12/17 06:32:04;;;;;;;9.30;3.10;;;;;;;31.26;55.08;100808.31;4945617;28;70377;-39
2023/12/17 06:34:36;;;;;;;10.00;2.90;;;;;;;31.32;56.09;100802.03;4961498;28;65794;-38
2023/12/17 06:37:06;;;;;;;3.53;3.22;;;;;;;31.21;54.05;100794.66;4963306;28;69751;-39
2023/12/17 06:39:41;;;;;;;2.83;2.63;;;;;;;31.24;53.89;100783.34;4964126;28;66268;-38
2023/12/17 06:42:12;;;;;;;8.27;2.63;;;;;;;31.12;54.36;100770.56;4967944;28;70535;-38
2023/12/17 06:44:42;;;;;;;2.53;2.33;;;;;;;31.12;52.80;100775.97;4971669;28;66273;-38
2023/12/17 06:47:12;;;;;;;7.13;2.80;;;;;;;31.15;52.40;100775.53;4970297;28;68182;-39
2023/12/17 06:49:56;;;;;;;2.65;2.45;;;;;;;31.03;51.62;100766.47;4968358;28;65953;-39
2023/12/17 06:52:25;;;;;;;3.35;2.38;;;;;;;31.15;52.22;100770.09;4967735;28;70191;-38
2023/12/17 06:54:55;;;;;;;4.50;2.58;;;;;;;31.07;51.03;100767.69;4965246;28;65577;-39
2023/12/17 06:57:25;;;;;;;2.78;2.58;;;;;;;30.84;51.95;100721.44;4961653;28;69285;-38
2023/12/17 06:59:55;;;;;;;2.80;2.60;;;;;;;31.18;52.73;100768.84;4962603;28;66600;-39
2023/12/17 07:02:26;;;;;;;2.65;2.45;;;;;;;31.19;52.08;100769.66;4968603;28;69918;-38
2023/12/17 07:04:56;;;;;;;2.67;2.47;;;;;;;31.13;51.51;100757.84;4960373;28;66864;-38
2023/12/17 07:07:26;;;;;;;2.58;2.38;;;;;;;31.15;50.81;100764.69;4974155;28;70078;-39
2023/12/17 07:09:56;;;;;;;2.55;2.35;;;;;;;31.16;51.46;100747.38;4968823;28;66156;-39
2023/12/17 07:12:26;;;;;;;3.78;2.15;;;;;;;31.15;50.29;100748.44;4977677;28;70365;-39
2023/12/17 07:14:57;;;;;;;2.40;2.20;;;;;;;31.07;51.01;100728.94;4954233;28;66063;-40
2023/12/17 07:17:27;;;;;;;2.80;2.60;;;;;;;31.12;50.77;100738.03;4956239;28;70035;-40
2023/12/17 07:19:58;;;;;;;2.33;2.22;;;;;;;31.11;49.55;100749.91;4949769;28;65269;-39
2023/12/17 07:22:28;;;;;;;2.47;2.28;;;;;;;31.21;51.04;100754.00;4963029;28;70516;-38
2023/12/17 07:24:59;;;;;;;2.28;2.10;;;;;;;31.11;49.81;100746.38;4974997;28;66786;-39
2023/12/17 07:27:29;;;;;;;3.85;2.28;;;;;;;31.21;51.02;100748.59;4948496;28;69849;-38
2023/12/17 07:29:59;;;;;;;2.47;2.28;;;;;;;31.16;49.73;100736.53;4965758;28;66264;-38
2023/12/17 07:32:29;;;;;;;4.72;2.10;;;;;;;31.23;51.06;100741.03;4962446;28;70201;-38
2023/12/17 07:34:59;;;;;;;2.83;2.63;;;;;;;31.12;50.64;100704.69;4926173;28;65033;-38
2023/12/17 07:37:29;;;;;;;2.30;2.10;;;;;;;31.27;50.49;100720.56;4961860;28;70277;-39
2023/12/17 07:39:59;;;;;;;1.85;1.75;;;;;;;31.32;51.20;100721.53;4962666;28;65286;-39
2023/12/17 07:42:29;;;;;;;2.10;1.90;;;;;;;31.37;49.98;100729.00;4943566;28;70157;-39
2023/12/17 07:44:59;;;;;;;2.25;2.03;;;;;;;31.41;50.81;100730.22;4938048;28;65263;-38
2023/12/17 07:47:30;;;;;;;5.80;1.85;;;;;;;31.34;49.69;100726.72;4958619;28;70028;-37
2023/12/17 07:50:00;;;;;;;2.22;1.75;;;;;;;31.38;50.87;100725.25;4978401;28;65975;-39
2023/12/17 07:52:30;;;;;;;6.03;2.10;;;;;;;31.41;49.47;100723.97;4980085;28;69774;-38
2023/12/17 07:55:00;;;;;;;1.92;1.77;;;;;;;31.43;49.57;100728.13;4943013;28;66861;-38
2023/12/17 07:57:30;;;;;;;2.90;1.80;;;;;;;31.42;49.55;100729.16;4946480;28;69367;-39
2023/12/17 08:00:00;;;;;;;2.50;1.80;;;;;;;31.43;50.69;100721.88;4963031;28;65136;-39
2023/12/17 08:02:39;;;;;;;7.47;2.40;;;;;;;31.56;53.77;100706.25;4963378;28;69897;-40
2023/12/17 08:05:09;;;;;;;6.50;2.90;;;;;;;31.92;54.23;100726.22;4972121;28;66742;-38
2023/12/17 08:07:39;;;;;;;3.72;2.70;;;;;;;32.18;53.59;100729.56;4967862;28;69605;-39
2023/12/17 08:10:10;;;;;;;2.90;2.65;;;;;;;32.35;53.66;100724.31;4973944;28;66615;-39
2023/12/17 08:12:40;;;;;;;2.83;2.47;;;;;;;32.46;53.63;100729.78;4955554;28;69787;-40
2023/12/17 08:15:12;;;;;;;6.78;2.47;;;;;;;32.61;53.56;100726.59;4931955;28;65997;-39
2023/12/17 08:17:42;;;;;;;3.90;2.60;;;;;;;32.70;53.44;100710.78;4960986;28;69478;-39
2023/12/17 08:20:13;;;;;;;6.88;2.92;;;;;;;32.82;53.68;100727.91;4964201;28;66111;-38
2023/12/17 08:22:43;;;;;;;10.38;2.90;;;;;;;32.92;53.70;100732.72;4962534;28;69882;-40
2023/12/17 08:25:15;;;;;;;3.60;3.30;;;;;;;32.96;54.23;100731.22;4962850;28;66113;-39
2023/12/17 08:27:45;;;;;;;3.63;2.95;;;;;;;33.08;53.85;100740.19;4965966;28;69920;-39
2023/12/17 08:30:17;;;;;;;6.32;3.45;;;;;;;33.09;54.30;100724.72;4967406;28;65564;-39
2023/12/17 08:32:48;;;;;;;3.15;2.72;;;;;;;33.17;54.17;100721.63;4941439;28;69945;-39
2023/12/17 08:35:19;;;;;;;5.80;3.00;;;;;;;33.27;54.27;100732.72;4947487;28;65986;-38
2023/12/17 08:37:49;;;;;;;3.13;2.83;;;;;;;33.33;54.46;100739.09;4959181;28;69840;-41
2023/12/17 08:40:19;;;;;;;3.28;2.85;;;;;;;33.38;54.43;100736.47;4967174;28;64860;-38
2023/12/17 08:42:50;;;;;;;9.38;3.58;;;;;;;33.43;54.44;100749.31;4964856;28;69750;-38
2023/12/17 08:45:20;;;;;;;4.55;2.95;;;;;;;33.38;54.63;100729.13;4942704;28;66795;-39
2023/12/17 08:47:50;;;;;;;4.70;3.40;;;;;;;33.22;54.67;100697.25;4966330;28;69553;-39
2023/12/17 08:50:20;;;;;;;3.38;3.08;;;;;;;33.52;54.80;100735.16;4963407;28;66876;-39
2023/12/17 08:52:52;;;;;;;6.95;3.13;;;;;;;33.53;54.85;100736.78;4965719;28;68915;-39
2023/12/17 08:55:23;;;;;;;4.43;2.90;;;;;;;33.59;54.81;100729.56;4958416;28;65739;-38
2023/12/17 08:57:53;;;;;;;6.88;3.72;;;;;;;33.28;56.71;100739.78;4970184;28;70195;-39
2023/12/17 09:00:23;;;;;;;6.50;3.58;;;;;;;33.08;58.93;100740.19;4965460;28;66086;-39
2023/12/17 09:02:53;;;;;;;4.05;3.72;;;;;;;33.10;58.20;100745.41;4974109;28;70268;-39
2023/12/17 09:05:23;;;;;;;4.22;3.75;;;;;;;33.03;59.32;100748.22;4962131;28;66290;-38
2023/12/17 09:07:53;;;;;;;4.30;3.90;;;;;;;33.03;60.35;100755.56;4967916;28;70841;-39
2023/12/17 09:10:24;;;;;;;10.82;4.32;;;;;;;33.01;60.63;100754.97;4974256;28;66775;-39
2023/12/17 09:12:56;;;;;;;5.03;3.97;;;;;;;32.96;61.84;100757.53;4960752;28;70253;-38
2023/12/17 09:15:27;;;;;;;5.57;4.15;;;;;;;33.06;60.35;100757.78;4959544;28;66234;-39
2023/12/17 09:17:57;;;;;;;4.53;3.92;;;;;;;33.04;62.29;100762.63;4960768;28;70272;-39
2023/12/17 09:20:27;;;;;;;5.63;3.97;;;;;;;33.09;61.11;100760.84;4974384;28;65986;-39
2023/12/17 09:22:57;;;;;;;4.57;3.95;;;;;;;33.07;62.59;100765.72;4977600;28;70478;-39
2023/12/17 09:25:28;;;;;;;9.60;4.25;;;;;;;33.07;61.58;100759.44;4966503;28;66398;-40
2023/12/17 09:27:58;;;;;;;5.28;3.78;;;;;;;33.06;63.51;100764.06;4966920;28;70408;-39
2023/12/17 09:30:28;;;;;;;6.25;3.97;;;;;;;33.04;61.71;100754.47;4956653;28;65443;-38
2023/12/17 09:32:58;;;;;;;8.13;3.92;;;;;;;33.04;64.54;100771.63;4976721;28;68873;-39
2023/12/17 09:35:28;;;;;;;10.75;4.15;;;;;;;33.07;63.27;100765.72;4963508;28;66023;-39
2023/12/17 09:37:58;;;;;;;8.60;3.90;;;;;;;33.09;62.75;100773.63;4981979;28;69034;-40
2023/12/17 09:40:29;;;;;;;8.23;4.13;;;;;;;33.01;64.49;100782.13;4953259;28;66335;-39
2023/12/17 09:43:02;;;;;;;6.45;4.38;;;;;;;32.77;63.77;100738.66;4974057;28;69846;-39
2023/12/17 09:45:32;;;;;;;5.68;3.97;;;;;;;33.01;64.33;100782.97;4957587;28;65669;-39
2023/12/17 09:48:02;;;;;;;11.48;4.47;;;;;;;33.03;63.53;100786.28;4979276;28;70360;-39
2023/12/17 09:50:32;;;;;;;10.90;5.13;;;;;;;33.02;63.41;100786.53;4965143;28;66465;-39
2023/12/17 09:53:02;;;;;;;6.05;4.43;;;;;;;33.04;63.60;100789.81;4961163;28;70290;-39
2023/12/17 09:55:32;;;;;;;9.90;4.50;;;;;;;33.02;64.07;100790.06;4949917;28;66267;-39
2023/12/17 09:58:04;;;;;;;19.15;7.30;;;;;;;32.97;65.87;100797.25;4976358;28;70331;-39
2023/12/17 10:00:34;;;;;;;10.77;5.47;;;;;;;32.92;64.78;100787.91;4966289;28;66100;-38
2023/12/17 10:03:05;;;;;;;7.22;4.70;;;;;;;32.90;66.48;100797.34;4979441;28;69470;-38
2023/12/17 10:05:36;;;;;;;10.27;5.32;;;;;;;32.86;65.28;100796.19;4976956;28;66373;-39
2023/12/17 10:08:06;;;;;;;20.20;5.25;;;;;;;33.17;62.25;100788.75;4971832;28;70262;-40
2023/12/17 10:10:36;;;;;;;9.88;5.38;;;;;;;33.32;62.09;100789.91;4984611;28;66399;-40
2023/12/17 10:13:06;;;;;;;20.98;5.53;;;;;;;33.37;61.99;100790.00;4968973;28;70331;-39
2023/12/17 10:15:37;;;;;;;9.93;5.93;;;;;;;33.46;61.42;100795.06;4943485;28;66299;-39
2023/12/17 10:18:07;;;;;;;17.58;5.97;;;;;;;33.50;61.13;100796.25;4969411;28;68920;-39
2023/12/17 10:20:38;;;;;;;7.32;5.15;;;;;;;33.53;61.29;100791.19;4979482;28;66645;-39
2023/12/17 10:23:09;;;;;;;14.10;5.70;;;;;;;33.46;60.93;100778.75;4978147;28;69710;-39
2023/12/17 10:25:40;;;;;;;10.82;4.70;;;;;;;33.27;61.00;100743.59;4975924;28;66468;-39
2023/12/17 10:28:11;;;;;;;12.80;5.45;;;;;;;33.58;61.03;100793.19;4972820;28;70337;-38
2023/12/17 10:30:44;;;;;;;8.27;5.00;;;;;;;33.59;60.84;100797.56;4978898;28;65478;-38
2023/12/17 10:33:21;;;;;;;14.65;5.88;;;;;;;33.59;61.35;100805.72;4965023;28;70381;-38
2023/12/17 10:35:53;;;;;;;14.57;5.88;;;;;;;33.51;61.27;100787.03;4974520;28;66750;-38
2023/12/17 10:38:24;;;;;;;12.10;5.78;;;;;;;33.63;61.30;100806.91;4966621;28;69566;-39
2023/12/17 10:40:56;;;;;;;8.85;6.05;;;;;;;33.62;61.16;100799.78;4971259;28;66222;-37
2023/12/17 10:43:28;;;;;;;;;;;;;;;33.39;63.28;100811.53;4960864;28;70040;-38
2023/12/17 10:45:59;;;;;;;9.23;5.35;;;;;;;33.22;60.94;100746.19;4988671;28;66829;-38
2023/12/17 10:48:31;;;;;;;9.30;5.43;;;;;;;33.22;60.61;100743.47;4951334;28;69189;-37
2023/12/17 10:51:01;;;;;;;13.90;6.20;;;;;;;33.60;61.13;100804.66;4961708;28;66757;-39
2023/12/17 10:53:31;;;;;;;8.38;5.93;;;;;;;33.63;60.97;100809.63;4977497;28;69678;-38
2023/12/17 10:56:02;;;;;;;10.02;6.07;;;;;;;33.23;65.17;100812.25;4974608;28;66306;-40
2023/12/17 10:58:33;;;;;;;9.93;5.40;;;;;;;33.14;65.96;100814.50;4978265;28;69485;-39
2023/12/17 11:01:04;;;;;;;20.77;6.18;;;;;;;33.11;66.09;100815.00;4968908;28;65703;-39
2023/12/17 11:03:35;;;;;;;12.10;6.05;;;;;;;33.05;66.45;100821.38;4970195;28;69723;-41
2023/12/17 11:06:06;;;;;;;12.00;5.80;;;;;;;33.01;67.00;100814.75;4964640;28;65989;-39
2023/12/17 11:08:37;;;;;;;9.33;5.90;;;;;;;33.02;66.00;100827.28;4964492;28;69620;-40
2023/12/17 11:11:07;;;;;;;14.15;6.05;;;;;;;32.97;67.82;100824.41;4975702;28;66138;-40
2023/12/17 11:13:37;;;;;;;12.00;5.68;;;;;;;32.89;68.44;100829.13;4980378;28;70618;-39
2023/12/17 11:16:34;;;;;;;8.88;5.50;;;;;;;32.76;70.04;100840.22;4960827;28;66265;-39
2023/12/17 11:19:06;;;;;;;10.20;5.95;;;;;;;32.91;67.04;100834.34;4959725;28;69934;-39
2023/12/17 11:21:36;;;;;;;15.50;6.63;;;;;;;32.64;67.41;100801.34;4955264;28;65944;-38
2023/12/17 11:24:09;;;;;;;21.63;6.47;;;;;;;32.90;68.67;100836.22;4974102;28;43094;-39
2023/12/17 11:26:44;;;;;;;18.38;7.45;;;;;;;32.85;70.10;100849.69;4945908;28;64827;-39
2023/12/17 11:29:39;;;;;;;21.65;7.13;;;;;;;32.76;70.46;100851.06;4971037;28;71461;-39
2023/12/17 11:32:10;;;;;;;13.48;6.40;;;;;;;32.83;68.36;100854.53;4964280;28;66476;-39
2023/12/17 11:34:41;;;;;;;12.73;6.15;;;;;;;32.86;68.67;100859.47;4945157;28;70155;-38